UAL484 KJAC-KDEN
Flight info
| Callsign | UAL484 |
|---|---|
| Flight time | 1h 0m |
| Altitude | 37000 |
| Route | DIVYD2 JEDHY TOFUU FLATI5 |
| Aircraft | B38M/M-SDE1FGHILORVWXY/HB1 |
Departure
| Time | 2026-05-06 01:10 |
|---|---|
| Airport | Jackson Hole Airport (KJAC) |
Arrival
| Time | 2026-05-06 02:10 |
|---|---|
| Airport | Denver International Airport (KDEN) |
| Time | Latitude | Longitude | Altitude | Speed | Heading |
|---|---|---|---|---|---|
| 2026-05-06 00:34 | 43.60348 | -110.73711 | 6432 ft | 0 kts | 109° |
| 2026-05-06 01:00 | 43.60348 | -110.73712 | 6432 ft | 2 kts | 109° |
| 2026-05-06 01:00 | 43.60354 | -110.73734 | 6432 ft | 2 kts | 109° |
| 2026-05-06 01:01 | 43.60360 | -110.73755 | 6432 ft | 2 kts | 110° |
| 2026-05-06 01:01 | 43.60366 | -110.73776 | 6432 ft | 2 kts | 144° |
| 2026-05-06 01:01 | 43.60382 | -110.73781 | 6429 ft | 2 kts | 184° |
| 2026-05-06 01:01 | 43.60398 | -110.73778 | 6428 ft | 2 kts | 194° |
| 2026-05-06 01:02 | 43.60408 | -110.73774 | 6429 ft | 1 kts | 198° |
| 2026-05-06 01:06 | 43.60404 | -110.73776 | 6432 ft | 3 kts | 198° |
| 2026-05-06 01:06 | 43.60349 | -110.73802 | 6430 ft | 13 kts | 199° |
| 2026-05-06 01:06 | 43.60256 | -110.73847 | 6431 ft | 15 kts | 199° |
| 2026-05-06 01:06 | 43.60151 | -110.73897 | 6432 ft | 17 kts | 199° |
| 2026-05-06 01:07 | 43.60037 | -110.73952 | 6432 ft | 18 kts | 199° |
| 2026-05-06 01:07 | 43.59957 | -110.73992 | 6430 ft | 8 kts | 199° |
| 2026-05-06 01:07 | 43.59930 | -110.74005 | 6432 ft | 1 kts | 199° |
| 2026-05-06 01:07 | 43.59909 | -110.74018 | 6432 ft | 6 kts | 216° |
| 2026-05-06 01:08 | 43.59906 | -110.74081 | 6432 ft | 8 kts | 290° |
| 2026-05-06 01:08 | 43.59925 | -110.74149 | 6432 ft | 4 kts | 295° |
| 2026-05-06 01:08 | 43.59946 | -110.74160 | 6432 ft | 3 kts | 17° |
| 2026-05-06 01:08 | 43.59949 | -110.74158 | 6432 ft | 0 kts | 19° |
| 2026-05-06 01:09 | 43.60033 | -110.74117 | 6430 ft | 45 kts | 20° |
| 2026-05-06 01:09 | 43.60557 | -110.73861 | 6431 ft | 112 kts | 20° |
| 2026-05-06 01:09 | 43.61447 | -110.73432 | 6450 ft | 159 kts | 18° |
| 2026-05-06 01:10 | 43.62479 | -110.73003 | 7284 ft | 152 kts | 19° |
| 2026-05-06 01:10 | 43.63494 | -110.72504 | 7857 ft | 163 kts | 20° |
| 2026-05-06 01:10 | 43.64659 | -110.71907 | 8152 ft | 195 kts | 21° |
| 2026-05-06 01:10 | 43.66028 | -110.71206 | 8688 ft | 217 kts | 21° |
| 2026-05-06 01:11 | 43.67408 | -110.70432 | 9925 ft | 219 kts | 27° |
| 2026-05-06 01:11 | 43.68613 | -110.68982 | 10518 ft | 245 kts | 49° |
| 2026-05-06 01:11 | 43.69424 | -110.66778 | 11093 ft | 273 kts | 70° |
| 2026-05-06 01:11 | 43.69847 | -110.64119 | 11733 ft | 291 kts | 68° |
| 2026-05-06 01:12 | 43.70821 | -110.61650 | 12323 ft | 300 kts | 51° |
| 2026-05-06 01:12 | 43.71965 | -110.59106 | 12894 ft | 321 kts | 54° |
| 2026-05-06 01:12 | 43.73134 | -110.56398 | 13616 ft | 334 kts | 54° |
| 2026-05-06 01:12 | 43.74281 | -110.53539 | 14296 ft | 347 kts | 63° |
| 2026-05-06 01:13 | 43.74790 | -110.50230 | 15164 ft | 361 kts | 85° |
| 2026-05-06 01:13 | 43.74388 | -110.46744 | 15867 ft | 378 kts | 108° |
| 2026-05-06 01:13 | 43.73039 | -110.43598 | 16643 ft | 386 kts | 131° |
| 2026-05-06 01:13 | 43.70917 | -110.41304 | 17258 ft | 392 kts | 153° |
| 2026-05-06 01:14 | 43.66139 | -110.37454 | 18559 ft | 404 kts | 150° |
| 2026-05-06 01:14 | 43.63710 | -110.35421 | 19066 ft | 412 kts | 150° |
| 2026-05-06 01:14 | 43.61251 | -110.33355 | 19614 ft | 418 kts | 149° |
| 2026-05-06 01:15 | 43.58957 | -110.30852 | 20088 ft | 425 kts | 132° |
| 2026-05-06 01:15 | 43.56974 | -110.27804 | 20636 ft | 429 kts | 131° |
| 2026-05-06 01:15 | 43.55645 | -110.25771 | 20946 ft | 434 kts | 130° |
| 2026-05-06 01:15 | 43.53619 | -110.22646 | 21535 ft | 439 kts | 129° |
| 2026-05-06 01:16 | 43.51583 | -110.19492 | 22141 ft | 444 kts | 129° |
| 2026-05-06 01:16 | 43.49521 | -110.16295 | 22676 ft | 450 kts | 129° |
| 2026-05-06 01:16 | 43.47431 | -110.13058 | 23300 ft | 454 kts | 129° |
| 2026-05-06 01:16 | 43.45319 | -110.09791 | 23780 ft | 459 kts | 128° |
| 2026-05-06 01:17 | 43.43186 | -110.06495 | 24277 ft | 462 kts | 128° |
| 2026-05-06 01:17 | 43.41037 | -110.03178 | 24754 ft | 466 kts | 128° |
| 2026-05-06 01:17 | 43.38871 | -109.99839 | 25215 ft | 470 kts | 128° |
| 2026-05-06 01:17 | 43.36687 | -109.96475 | 25677 ft | 473 kts | 128° |
| 2026-05-06 01:18 | 43.34488 | -109.93096 | 26133 ft | 477 kts | 128° |
| 2026-05-06 01:18 | 43.32270 | -109.89680 | 26586 ft | 481 kts | 128° |
| 2026-05-06 01:18 | 43.30030 | -109.86247 | 27014 ft | 485 kts | 128° |
| 2026-05-06 01:18 | 43.27771 | -109.82784 | 27445 ft | 489 kts | 127° |
| 2026-05-06 01:19 | 43.25494 | -109.79297 | 27857 ft | 493 kts | 127° |
| 2026-05-06 01:19 | 43.23189 | -109.75772 | 28225 ft | 497 kts | 127° |
| 2026-05-06 01:19 | 43.20871 | -109.72233 | 28619 ft | 501 kts | 127° |
| 2026-05-06 01:19 | 43.18538 | -109.68674 | 29044 ft | 505 kts | 127° |
| 2026-05-06 01:20 | 43.16173 | -109.65071 | 29390 ft | 511 kts | 127° |
| 2026-05-06 01:20 | 43.13786 | -109.61439 | 29782 ft | 514 kts | 127° |
| 2026-05-06 01:20 | 43.11380 | -109.57782 | 30101 ft | 519 kts | 127° |
| 2026-05-06 01:20 | 43.08955 | -109.54103 | 30419 ft | 523 kts | 127° |
| 2026-05-06 01:21 | 43.06517 | -109.50409 | 30774 ft | 524 kts | 127° |
| 2026-05-06 01:21 | 43.04068 | -109.46704 | 31176 ft | 525 kts | 128° |
| 2026-05-06 01:21 | 43.01616 | -109.42995 | 31591 ft | 526 kts | 128° |
| 2026-05-06 01:21 | 42.99160 | -109.39289 | 31957 ft | 527 kts | 128° |
| 2026-05-06 01:22 | 42.96698 | -109.35575 | 32380 ft | 528 kts | 128° |
| 2026-05-06 01:22 | 42.94231 | -109.31860 | 32721 ft | 529 kts | 128° |
| 2026-05-06 01:22 | 42.91758 | -109.28140 | 33224 ft | 527 kts | 128° |
| 2026-05-06 01:22 | 42.89300 | -109.24449 | 33778 ft | 524 kts | 129° |
| 2026-05-06 01:23 | 42.86888 | -109.20830 | 34250 ft | 521 kts | 129° |
| 2026-05-06 01:23 | 42.84455 | -109.17185 | 34711 ft | 519 kts | 130° |
| 2026-05-06 01:23 | 42.82028 | -109.13555 | 35126 ft | 516 kts | 130° |
| 2026-05-06 01:23 | 42.79624 | -109.09958 | 35561 ft | 513 kts | 130° |
| 2026-05-06 01:24 | 42.77215 | -109.06364 | 35949 ft | 512 kts | 131° |
| 2026-05-06 01:24 | 42.74821 | -109.02795 | 36371 ft | 509 kts | 131° |
| 2026-05-06 01:24 | 42.72439 | -108.99247 | 36737 ft | 508 kts | 131° |
| 2026-05-06 01:24 | 42.70054 | -108.95700 | 37054 ft | 507 kts | 131° |
| 2026-05-06 01:25 | 42.65333 | -108.88690 | 37088 ft | 499 kts | 132° |
| 2026-05-06 01:25 | 42.60652 | -108.81758 | 37070 ft | 498 kts | 132° |
| 2026-05-06 01:26 | 42.55962 | -108.74830 | 37077 ft | 498 kts | 132° |
| 2026-05-06 01:26 | 42.51268 | -108.67911 | 37081 ft | 498 kts | 132° |
| 2026-05-06 01:27 | 42.46611 | -108.61063 | 37086 ft | 497 kts | 133° |
| 2026-05-06 01:27 | 42.41918 | -108.54180 | 37083 ft | 497 kts | 133° |
| 2026-05-06 01:28 | 42.37223 | -108.47310 | 37075 ft | 497 kts | 133° |
| 2026-05-06 01:28 | 42.32529 | -108.40456 | 37067 ft | 497 kts | 133° |
| 2026-05-06 01:29 | 42.27835 | -108.33619 | 37057 ft | 496 kts | 133° |
| 2026-05-06 01:29 | 42.23137 | -108.26792 | 37049 ft | 496 kts | 134° |
| 2026-05-06 01:30 | 42.18442 | -108.19987 | 37038 ft | 495 kts | 134° |
| 2026-05-06 01:30 | 42.13741 | -108.13189 | 37034 ft | 495 kts | 134° |
| 2026-05-06 01:31 | 42.09050 | -108.06419 | 37030 ft | 494 kts | 134° |
| 2026-05-06 01:31 | 42.04360 | -107.99667 | 37017 ft | 494 kts | 135° |
| 2026-05-06 01:32 | 41.99666 | -107.92927 | 37014 ft | 493 kts | 135° |
| 2026-05-06 01:32 | 41.94982 | -107.86211 | 37016 ft | 492 kts | 135° |
| 2026-05-06 01:33 | 41.90301 | -107.79515 | 37005 ft | 491 kts | 135° |
| 2026-05-06 01:33 | 41.85628 | -107.72846 | 36999 ft | 491 kts | 135° |
| 2026-05-06 01:34 | 41.80982 | -107.66141 | 36995 ft | 491 kts | 134° |
| 2026-05-06 01:34 | 41.76427 | -107.59322 | 36998 ft | 491 kts | 134° |
| 2026-05-06 01:35 | 41.71866 | -107.52534 | 36975 ft | 491 kts | 134° |
| 2026-05-06 01:35 | 41.67292 | -107.45744 | 36968 ft | 491 kts | 134° |
| 2026-05-06 01:36 | 41.62740 | -107.39001 | 36969 ft | 492 kts | 134° |
| 2026-05-06 01:36 | 41.58122 | -107.32177 | 36954 ft | 492 kts | 134° |
| 2026-05-06 01:37 | 41.53552 | -107.25437 | 36952 ft | 493 kts | 135° |
| 2026-05-06 01:37 | 41.48946 | -107.18661 | 36949 ft | 493 kts | 135° |
| 2026-05-06 01:38 | 41.44291 | -107.11826 | 36940 ft | 494 kts | 135° |
| 2026-05-06 01:38 | 41.39706 | -107.05092 | 36958 ft | 494 kts | 134° |
| 2026-05-06 01:39 | 41.35094 | -106.98330 | 36959 ft | 493 kts | 135° |
| 2026-05-06 01:39 | 41.30479 | -106.91587 | 36958 ft | 492 kts | 135° |
| 2026-05-06 01:40 | 41.25867 | -106.84856 | 36955 ft | 492 kts | 135° |
| 2026-05-06 01:40 | 41.21263 | -106.78152 | 36949 ft | 491 kts | 135° |
| 2026-05-06 01:41 | 41.16659 | -106.71464 | 36939 ft | 490 kts | 135° |
| 2026-05-06 01:41 | 41.12059 | -106.64797 | 36929 ft | 489 kts | 135° |
| 2026-05-06 01:42 | 41.09754 | -106.61461 | 36826 ft | 494 kts | 135° |
| 2026-05-06 01:42 | 41.07432 | -106.58105 | 36548 ft | 493 kts | 135° |
| 2026-05-06 01:42 | 41.05121 | -106.54769 | 36280 ft | 492 kts | 135° |
| 2026-05-06 01:42 | 41.02806 | -106.51430 | 36016 ft | 491 kts | 135° |
| 2026-05-06 01:43 | 41.00496 | -106.48102 | 35751 ft | 491 kts | 135° |
| 2026-05-06 01:43 | 40.98186 | -106.44778 | 35490 ft | 491 kts | 135° |
| 2026-05-06 01:43 | 40.95872 | -106.41451 | 35219 ft | 487 kts | 135° |
| 2026-05-06 01:43 | 40.93590 | -106.38174 | 34702 ft | 483 kts | 135° |
| 2026-05-06 01:44 | 40.91306 | -106.34898 | 33851 ft | 488 kts | 135° |
| 2026-05-06 01:44 | 40.88988 | -106.31578 | 32834 ft | 493 kts | 135° |
| 2026-05-06 01:44 | 40.86658 | -106.28246 | 32138 ft | 491 kts | 135° |
| 2026-05-06 01:44 | 40.84535 | -106.24745 | 31622 ft | 489 kts | 123° |
| 2026-05-06 01:45 | 40.83496 | -106.22103 | 31263 ft | 487 kts | 116° |
| 2026-05-06 01:45 | 40.82402 | -106.19027 | 30880 ft | 481 kts | 117° |
| 2026-05-06 01:45 | 40.80946 | -106.15006 | 30324 ft | 478 kts | 118° |
| 2026-05-06 01:45 | 40.79544 | -106.11091 | 29702 ft | 476 kts | 118° |
| 2026-05-06 01:46 | 40.78142 | -106.07154 | 29087 ft | 473 kts | 118° |
| 2026-05-06 01:46 | 40.76750 | -106.03242 | 28545 ft | 469 kts | 118° |
| 2026-05-06 01:46 | 40.75369 | -105.99368 | 27997 ft | 465 kts | 118° |
| 2026-05-06 01:46 | 40.74001 | -105.95531 | 27476 ft | 461 kts | 118° |
| 2026-05-06 01:47 | 40.72637 | -105.91714 | 26937 ft | 458 kts | 118° |
| 2026-05-06 01:47 | 40.71287 | -105.87944 | 26518 ft | 452 kts | 119° |
| 2026-05-06 01:47 | 40.69946 | -105.84208 | 26182 ft | 452 kts | 119° |
| 2026-05-06 01:47 | 40.68604 | -105.80472 | 25793 ft | 451 kts | 119° |
| 2026-05-06 01:48 | 40.67263 | -105.76745 | 25411 ft | 448 kts | 119° |
| 2026-05-06 01:48 | 40.65932 | -105.73049 | 25042 ft | 446 kts | 119° |
| 2026-05-06 01:48 | 40.64603 | -105.69360 | 24646 ft | 444 kts | 119° |
| 2026-05-06 01:48 | 40.63280 | -105.65698 | 24209 ft | 440 kts | 119° |
| 2026-05-06 01:49 | 40.61975 | -105.62089 | 23857 ft | 434 kts | 119° |
| 2026-05-06 01:49 | 40.60673 | -105.58494 | 23488 ft | 435 kts | 119° |
| 2026-05-06 01:49 | 40.59373 | -105.54908 | 23059 ft | 434 kts | 119° |
| 2026-05-06 01:49 | 40.58077 | -105.51336 | 22687 ft | 431 kts | 119° |
| 2026-05-06 01:50 | 40.56784 | -105.47777 | 22296 ft | 427 kts | 119° |
| 2026-05-06 01:50 | 40.55516 | -105.44293 | 21974 ft | 420 kts | 119° |
| 2026-05-06 01:50 | 40.54262 | -105.40849 | 21527 ft | 416 kts | 119° |
| 2026-05-06 01:50 | 40.53016 | -105.37434 | 21091 ft | 413 kts | 118° |
| 2026-05-06 01:51 | 40.51980 | -105.34595 | 20777 ft | 408 kts | 118° |
| 2026-05-06 01:51 | 40.50744 | -105.31247 | 20420 ft | 412 kts | 119° |
| 2026-05-06 01:51 | 40.49476 | -105.27837 | 20533 ft | 416 kts | 118° |
| 2026-05-06 01:51 | 40.48252 | -105.24467 | 20217 ft | 400 kts | 118° |
| 2026-05-06 01:52 | 40.47076 | -105.21229 | 19875 ft | 385 kts | 118° |
| 2026-05-06 01:52 | 40.45710 | -105.18284 | 19316 ft | 372 kts | 136° |
| 2026-05-06 01:52 | 40.43810 | -105.16168 | 18833 ft | 357 kts | 150° |
| 2026-05-06 01:52 | 40.41802 | -105.14254 | 18510 ft | 351 kts | 149° |
| 2026-05-06 01:53 | 40.39824 | -105.12380 | 18225 ft | 350 kts | 149° |
| 2026-05-06 01:53 | 40.37855 | -105.10531 | 17964 ft | 348 kts | 149° |
| 2026-05-06 01:53 | 40.35885 | -105.08695 | 17714 ft | 346 kts | 149° |
| 2026-05-06 01:53 | 40.33923 | -105.06871 | 17478 ft | 345 kts | 149° |
| 2026-05-06 01:54 | 40.31968 | -105.05058 | 17251 ft | 344 kts | 149° |
| 2026-05-06 01:54 | 40.30042 | -105.03273 | 17028 ft | 342 kts | 149° |
| 2026-05-06 01:54 | 40.28107 | -105.01480 | 16812 ft | 341 kts | 149° |
| 2026-05-06 01:54 | 40.26174 | -104.99692 | 16591 ft | 339 kts | 149° |
| 2026-05-06 01:55 | 40.24249 | -104.97912 | 16370 ft | 338 kts | 149° |
| 2026-05-06 01:55 | 40.22338 | -104.96146 | 16145 ft | 336 kts | 149° |
| 2026-05-06 01:55 | 40.20430 | -104.94383 | 15916 ft | 334 kts | 149° |
| 2026-05-06 01:55 | 40.18527 | -104.92653 | 15687 ft | 331 kts | 154° |
| 2026-05-06 01:56 | 40.16476 | -104.91379 | 15448 ft | 324 kts | 162° |
| 2026-05-06 01:56 | 40.14403 | -104.90224 | 15249 ft | 323 kts | 162° |
| 2026-05-06 01:56 | 40.14077 | -104.90041 | 15211 ft | 323 kts | 162° |
| 2026-05-06 01:56 | 40.12082 | -104.88921 | 15011 ft | 321 kts | 161° |
| 2026-05-06 01:57 | 40.10028 | -104.87766 | 14806 ft | 320 kts | 161° |
| 2026-05-06 01:57 | 40.08139 | -104.86704 | 14616 ft | 319 kts | 161° |
| 2026-05-06 01:57 | 40.07178 | -104.86162 | 14516 ft | 318 kts | 161° |
| 2026-05-06 01:57 | 40.05155 | -104.85024 | 14313 ft | 316 kts | 161° |
| 2026-05-06 01:58 | 40.03137 | -104.83872 | 14080 ft | 315 kts | 161° |
| 2026-05-06 01:58 | 40.01136 | -104.82730 | 13868 ft | 313 kts | 161° |
| 2026-05-06 01:58 | 39.99147 | -104.81596 | 13655 ft | 311 kts | 161° |
| 2026-05-06 01:58 | 39.97132 | -104.80625 | 13371 ft | 305 kts | 174° |
| 2026-05-06 01:59 | 39.95045 | -104.80529 | 13096 ft | 298 kts | 185° |
| 2026-05-06 01:59 | 39.92983 | -104.80557 | 12845 ft | 294 kts | 184° |
| 2026-05-06 01:59 | 39.90986 | -104.80590 | 12603 ft | 280 kts | 184° |
| 2026-05-06 01:59 | 39.89089 | -104.80631 | 12371 ft | 266 kts | 184° |
| 2026-05-06 02:00 | 39.87277 | -104.80674 | 12152 ft | 254 kts | 184° |
| 2026-05-06 02:00 | 39.85548 | -104.80717 | 11916 ft | 245 kts | 184° |
| 2026-05-06 02:00 | 39.83841 | -104.80761 | 11720 ft | 246 kts | 184° |
| 2026-05-06 02:00 | 39.82131 | -104.80806 | 11480 ft | 246 kts | 184° |
| 2026-05-06 02:01 | 39.80420 | -104.80851 | 11232 ft | 246 kts | 183° |
| 2026-05-06 02:01 | 39.78706 | -104.80894 | 11034 ft | 245 kts | 182° |
| 2026-05-06 02:01 | 39.77046 | -104.80915 | 10830 ft | 241 kts | 182° |
| 2026-05-06 02:01 | 39.75350 | -104.80934 | 10552 ft | 239 kts | 181° |
| 2026-05-06 02:02 | 39.73703 | -104.80953 | 10123 ft | 237 kts | 180° |
| 2026-05-06 02:02 | 39.72084 | -104.80972 | 9729 ft | 235 kts | 179° |
| 2026-05-06 02:02 | 39.70452 | -104.80992 | 9424 ft | 234 kts | 180° |
| 2026-05-06 02:02 | 39.68821 | -104.81011 | 9080 ft | 235 kts | 179° |
| 2026-05-06 02:03 | 39.67196 | -104.81031 | 8932 ft | 233 kts | 179° |
| 2026-05-06 02:03 | 39.65566 | -104.81050 | 8934 ft | 235 kts | 179° |
| 2026-05-06 02:03 | 39.63927 | -104.81074 | 8959 ft | 236 kts | 179° |
| 2026-05-06 02:03 | 39.62336 | -104.80720 | 8946 ft | 232 kts | 150° |
| 2026-05-06 02:04 | 39.61264 | -104.79235 | 8937 ft | 229 kts | 111° |
| 2026-05-06 02:04 | 39.61064 | -104.77192 | 8988 ft | 232 kts | 88° |
| 2026-05-06 02:04 | 39.61147 | -104.75084 | 9003 ft | 235 kts | 88° |
| 2026-05-06 02:04 | 39.61246 | -104.72976 | 8973 ft | 234 kts | 86° |
| 2026-05-06 02:05 | 39.61701 | -104.70972 | 8953 ft | 233 kts | 58° |
| 2026-05-06 02:05 | 39.62866 | -104.69505 | 9005 ft | 238 kts | 30° |
| 2026-05-06 02:05 | 39.64449 | -104.68901 | 8976 ft | 241 kts | 4° |
| 2026-05-06 02:05 | 39.66130 | -104.68922 | 8983 ft | 243 kts | 0° |
| 2026-05-06 02:06 | 39.67814 | -104.68935 | 9019 ft | 236 kts | 1° |
| 2026-05-06 02:06 | 39.69386 | -104.68919 | 8871 ft | 219 kts | 2° |
| 2026-05-06 02:06 | 39.70879 | -104.68900 | 8551 ft | 211 kts | 2° |
| 2026-05-06 02:06 | 39.72325 | -104.68883 | 8249 ft | 207 kts | 2° |
| 2026-05-06 02:07 | 39.73761 | -104.68866 | 7958 ft | 204 kts | 2° |
| 2026-05-06 02:07 | 39.75174 | -104.68850 | 7684 ft | 202 kts | 2° |
| 2026-05-06 02:07 | 39.76569 | -104.68833 | 7412 ft | 199 kts | 2° |
| 2026-05-06 02:07 | 39.77938 | -104.68818 | 7189 ft | 190 kts | 2° |
| 2026-05-06 02:08 | 39.79183 | -104.68804 | 6944 ft | 168 kts | 2° |
| 2026-05-06 02:08 | 39.80284 | -104.68791 | 6759 ft | 152 kts | 3° |
| 2026-05-06 02:08 | 39.81329 | -104.68778 | 6549 ft | 149 kts | 3° |
| 2026-05-06 02:08 | 39.82360 | -104.68766 | 6301 ft | 148 kts | 2° |
| 2026-05-06 02:09 | 39.83382 | -104.68753 | 6055 ft | 146 kts | 1° |
| 2026-05-06 02:09 | 39.84378 | -104.68739 | 5819 ft | 141 kts | 1° |
| 2026-05-06 02:09 | 39.85359 | -104.68727 | 5587 ft | 142 kts | 0° |
| 2026-05-06 02:09 | 39.86357 | -104.68717 | 5398 ft | 144 kts | 0° |
| 2026-05-06 02:10 | 39.87273 | -104.68709 | 5360 ft | 107 kts | 0° |
| 2026-05-06 02:10 | 39.87792 | -104.68705 | 5367 ft | 59 kts | 0° |
| 2026-05-06 02:10 | 39.88179 | -104.68701 | 5363 ft | 43 kts | 1° |
| 2026-05-06 02:10 | 39.88452 | -104.68659 | 5358 ft | 28 kts | 16° |
| 2026-05-06 02:11 | 39.88569 | -104.68591 | 5359 ft | 15 kts | 32° |
| 2026-05-06 02:11 | 39.88596 | -104.68507 | 5360 ft | 11 kts | 130° |
| 2026-05-06 02:11 | 39.88521 | -104.68482 | 5359 ft | 12 kts | 180° |
| 2026-05-06 02:11 | 39.88429 | -104.68483 | 5360 ft | 14 kts | 180° |
| 2026-05-06 02:12 | 39.88332 | -104.68484 | 5360 ft | 14 kts | 181° |
| 2026-05-06 02:12 | 39.88238 | -104.68485 | 5363 ft | 13 kts | 180° |
| 2026-05-06 02:12 | 39.88142 | -104.68486 | 5361 ft | 14 kts | 180° |
| 2026-05-06 02:12 | 39.88040 | -104.68487 | 5364 ft | 15 kts | 180° |
| 2026-05-06 02:13 | 39.87938 | -104.68488 | 5366 ft | 15 kts | 180° |
| 2026-05-06 02:13 | 39.87833 | -104.68490 | 5367 ft | 16 kts | 181° |
| 2026-05-06 02:13 | 39.87714 | -104.68492 | 5366 ft | 18 kts | 180° |
| 2026-05-06 02:13 | 39.87579 | -104.68498 | 5364 ft | 20 kts | 177° |
| 2026-05-06 02:14 | 39.87432 | -104.68494 | 5363 ft | 22 kts | 180° |
| 2026-05-06 02:14 | 39.87280 | -104.68495 | 5360 ft | 17 kts | 181° |
| 2026-05-06 02:14 | 39.87156 | -104.68497 | 5361 ft | 18 kts | 181° |
| 2026-05-06 02:14 | 39.87027 | -104.68500 | 5362 ft | 19 kts | 181° |
| 2026-05-06 02:15 | 39.86903 | -104.68499 | 5362 ft | 17 kts | 180° |
| 2026-05-06 02:15 | 39.86785 | -104.68500 | 5364 ft | 16 kts | 182° |
| 2026-05-06 02:15 | 39.86658 | -104.68504 | 5367 ft | 21 kts | 180° |
| 2026-05-06 02:15 | 39.86502 | -104.68506 | 5367 ft | 23 kts | 180° |
| 2026-05-06 02:16 | 39.86341 | -104.68508 | 5367 ft | 24 kts | 181° |
| 2026-05-06 02:16 | 39.86226 | -104.68509 | 5366 ft | 17 kts | 180° |
| 2026-05-06 02:16 | 39.86141 | -104.68466 | 5365 ft | 12 kts | 104° |
| 2026-05-06 02:16 | 39.86139 | -104.68362 | 5368 ft | 11 kts | 90° |
| 2026-05-06 02:17 | 39.86140 | -104.68263 | 5369 ft | 11 kts | 90° |
| 2026-05-06 02:17 | 39.86100 | -104.68195 | 5370 ft | 11 kts | 178° |
| 2026-05-06 02:17 | 39.86027 | -104.68187 | 5371 ft | 10 kts | 144° |
| 2026-05-06 02:17 | 39.86018 | -104.68110 | 5374 ft | 9 kts | 87° |
| 2026-05-06 02:18 | 39.86020 | -104.68027 | 5376 ft | 10 kts | 88° |
| 2026-05-06 02:18 | 39.86023 | -104.67935 | 5376 ft | 11 kts | 88° |
| 2026-05-06 02:18 | 39.86002 | -104.67848 | 5376 ft | 9 kts | 148° |
| 2026-05-06 02:18 | 39.85952 | -104.67839 | 5378 ft | 4 kts | 180° |
| 2026-05-06 02:19 | 39.85936 | -104.67838 | 5377 ft | 0 kts | 179° |